Time;durP1;ratioP1;P1;durP2;ratioP2;P2;SDS_P1;SDS_P2;PMS_P1;PMS_P2;Temp;Humidity;BMP_temperature;BMP_pressure;BME280_temperature;BME280_humidity;BME280_pressure;Samples;Min_cycle;Max_cycle;Signal;HPM_P1;HPM_P2
2022/07/03 00:02:20;;;;;;;1.35;1.25;;;;;;;17.95;64.38;98397.94;4938336;29;20479;-82
2022/07/03 00:04:46;;;;;;;1.40;1.30;;;;;;;17.88;63.46;98395.44;4956398;28;20080;-86
2022/07/03 00:07:13;;;;;;;1.30;1.20;;;;;;;17.87;63.63;98392.00;4966783;28;20110;-82
2022/07/03 00:09:40;;;;;;;1.30;1.20;;;;;;;17.84;64.21;98387.16;4948037;29;20083;-88
2022/07/03 00:12:08;;;;;;;1.30;1.20;;;;;;;17.82;63.49;98399.84;4953133;29;20554;-86
2022/07/03 00:14:35;;;;;;;1.35;1.25;;;;;;;17.81;64.41;98385.00;4948747;29;20043;-84
2022/07/03 00:17:02;;;;;;;1.50;1.40;;;;;;;17.79;63.31;98380.94;4952026;29;20130;-87
2022/07/03 00:19:29;;;;;;;1.33;1.23;;;;;;;17.85;65.44;98402.03;4948731;29;20796;-83
2022/07/03 00:22:02;;;;;;;0.88;0.88;;;;;;;17.84;65.78;98399.63;4946369;29;20102;-83
2022/07/03 00:24:40;;;;;;;0.93;0.93;;;;;;;17.81;65.99;98403.56;4946297;29;20094;-82
2022/07/03 00:27:25;;;;;;;1.38;1.27;;;;;;;17.81;65.44;98395.59;4949454;28;20100;-83
2022/07/03 00:29:58;;;;;;;1.20;1.10;;;;;;;17.77;64.75;98389.16;4945083;28;20495;-86
2022/07/03 00:32:27;;;;;;;1.33;1.23;;;;;;;17.79;64.22;98395.00;4950428;28;20035;-85
2022/07/03 00:34:57;;;;;;;1.02;1.00;;;;;;;17.77;64.53;98396.31;4950026;28;20110;-86
2022/07/03 00:37:24;;;;;;;1.52;1.40;;;;;;;17.74;64.40;98389.63;4954926;28;20067;-86
2022/07/03 00:39:52;;;;;;;1.77;1.67;;;;;;;17.64;65.09;98382.28;4955797;29;20475;-84
2022/07/03 00:42:20;;;;;;;1.00;1.00;;;;;;;17.62;64.98;98378.22;4942284;29;20067;-85
2022/07/03 00:44:55;;;;;;;1.17;1.15;;;;;;;17.66;64.82;98384.69;4955273;28;20471;-87
2022/07/03 00:47:26;;;;;;;2.00;1.38;;;;;;;17.61;66.08;98388.03;4942538;29;20051;-84
2022/07/03 00:49:57;;;;;;;1.40;1.30;;;;;;;17.59;65.78;98386.66;4936952;29;20051;-84
2022/07/03 00:52:24;;;;;;;1.58;1.48;;;;;;;17.51;65.97;98387.88;4955550;28;20082;-85
2022/07/03 00:54:57;;;;;;;1.42;1.33;;;;;;;17.42;66.48;98376.00;4953964;28;20051;-83
2022/07/03 00:57:29;;;;;;;1.60;1.50;;;;;;;17.37;65.84;98376.72;4954429;28;20054;-82
2022/07/03 00:59:57;;;;;;;1.25;1.15;;;;;;;17.44;66.23;98381.06;4955620;28;20051;-83
2022/07/03 01:02:51;;;;;;;1.20;1.20;;;;;;;17.34;66.42;98366.59;4947590;29;20044;-85
2022/07/03 01:05:36;;;;;;;1.40;1.30;;;;;;;17.34;66.32;98377.19;4959928;28;20067;-85
2022/07/03 01:08:33;;;;;;;2.25;1.67;;;;;;;17.32;65.89;98368.66;4954331;28;20047;-86
2022/07/03 01:11:39;;;;;;;1.30;1.20;;;;;;;17.34;67.20;98379.06;4953870;29;20054;-84
2022/07/03 01:14:24;;;;;;;1.65;1.13;;;;;;;17.30;66.56;98372.59;4949264;29;20075;-84
2022/07/03 01:17:24;;;;;;;1.42;1.20;;;;;;;17.27;67.79;98370.41;4948383;29;20051;-85
2022/07/03 01:20:06;;;;;;;1.15;1.05;;;;;;;17.29;68.05;98374.44;4936130;29;20514;-86
2022/07/03 01:22:54;;;;;;;0.90;0.90;;;;;;;17.29;66.81;98371.00;4938969;29;20074;-83
2022/07/03 01:25:49;;;;;;;1.20;1.10;;;;;;;17.26;67.78;98364.31;4941626;29;20055;-85
2022/07/03 01:28:24;;;;;;;0.93;0.82;;;;;;;17.25;67.56;98368.00;4967570;28;20044;-86
2022/07/03 01:30:54;;;;;;;1.38;1.27;;;;;;;17.18;67.28;98367.34;4949000;28;20111;-86
2022/07/03 01:33:29;;;;;;;0.90;0.90;;;;;;;17.20;68.22;98370.53;4939756;29;20048;-84
2022/07/03 01:36:05;;;;;;;1.00;0.90;;;;;;;17.13;67.73;98359.28;4952045;29;20333;-85
2022/07/03 01:38:35;;;;;;;1.10;1.10;;;;;;;17.06;68.32;98366.56;4950425;29;20514;-85
2022/07/03 01:41:05;;;;;;;1.77;1.20;;;;;;;17.06;67.91;98372.66;4954366;28;20086;-84
2022/07/03 01:43:38;;;;;;;1.00;1.00;;;;;;;17.08;68.56;98367.13;4947402;28;20455;-85
2022/07/03 01:46:05;;;;;;;1.10;1.10;;;;;;;17.00;69.54;98359.56;4945817;28;20083;-84
2022/07/03 01:48:33;;;;;;;1.52;1.42;;;;;;;17.01;68.36;98363.81;4947574;29;20051;-85
2022/07/03 01:51:01;;;;;;;1.15;1.05;;;;;;;16.94;68.48;98361.28;4954938;28;20385;-87
2022/07/03 01:53:30;;;;;;;1.38;1.08;;;;;;;16.94;69.08;98366.59;4954791;28;20164;-86
2022/07/03 01:56:00;;;;;;;1.42;1.33;;;;;;;16.91;68.66;98368.88;4954096;28;20457;-85
2022/07/03 01:58:27;;;;;;;1.08;1.08;;;;;;;16.88;68.92;98369.38;4949232;29;20048;-87
2022/07/03 02:01:24;;;;;;;1.33;1.23;;;;;;;16.83;69.63;98365.56;4942868;29;20047;-84
2022/07/03 02:04:28;;;;;;;1.48;1.38;;;;;;;16.73;68.90;98360.06;4951458;29;20058;-89
2022/07/03 02:07:08;;;;;;;1.52;1.30;;;;;;;16.73;69.17;98359.25;4949801;28;20435;-85
2022/07/03 02:09:59;;;;;;;1.15;1.08;;;;;;;16.72;69.29;98370.88;4944641;29;20083;-87
2022/07/03 02:12:37;;;;;;;1.20;1.20;;;;;;;16.63;68.78;98357.16;4953474;29;20134;-86
2022/07/03 02:15:08;;;;;;;1.50;1.30;;;;;;;16.66;69.33;98369.13;4942684;29;20106;-84
2022/07/03 02:17:47;;;;;;;1.00;1.00;;;;;;;16.66;69.46;98367.28;4938000;29;20043;-85
2022/07/03 02:20:17;;;;;;;1.77;1.67;;;;;;;16.60;68.59;98360.28;4944248;29;20043;-84
2022/07/03 02:22:57;;;;;;;1.40;1.30;;;;;;;16.55;69.58;98358.34;4940741;29;20053;-84
2022/07/03 02:25:33;;;;;;;1.40;1.30;;;;;;;16.60;69.55;98355.78;4935658;29;20051;-83
2022/07/03 02:29:01;;;;;;;1.27;1.20;;;;;;;16.57;69.84;98355.44;4953485;28;20074;-86
2022/07/03 02:31:39;;;;;;;1.38;1.27;;;;;;;16.54;69.82;98350.59;4946573;29;20043;-86
2022/07/03 02:34:08;;;;;;;1.33;1.23;;;;;;;16.56;70.37;98353.84;4948976;29;20047;-86
2022/07/03 02:36:37;;;;;;;1.42;1.25;;;;;;;16.55;70.08;98349.56;4952382;29;20546;-85
2022/07/03 02:39:14;;;;;;;2.30;1.40;;;;;;;16.54;70.03;98353.25;4952510;29;20538;-89
2022/07/03 02:41:59;;;;;;;1.40;1.30;;;;;;;16.54;69.91;98350.59;4940623;28;20043;-85
2022/07/03 02:44:45;;;;;;;1.20;1.10;;;;;;;16.54;70.13;98340.81;4960495;28;20102;-85
2022/07/03 02:47:33;;;;;;;1.30;1.20;;;;;;;16.45;69.82;98344.06;4954019;28;20567;-85
2022/07/03 02:50:04;;;;;;;1.40;1.30;;;;;;;16.48;70.46;98356.81;4936736;29;20051;-84
2022/07/03 02:52:40;;;;;;;1.35;1.25;;;;;;;16.43;70.74;98359.34;4933859;29;20051;-87
2022/07/03 02:55:42;;;;;;;1.55;1.00;;;;;;;16.43;70.80;98348.75;4949439;28;20443;-85
2022/07/03 02:58:33;;;;;;;1.83;1.73;;;;;;;16.35;70.21;98347.28;4952640;28;20071;-85
2022/07/03 03:01:12;;;;;;;1.50;1.40;;;;;;;16.32;70.64;98359.16;4952094;28;20447;-85
2022/07/03 03:03:57;;;;;;;1.70;1.60;;;;;;;16.30;70.28;98347.16;4951130;29;20065;-84
2022/07/03 03:06:26;;;;;;;1.55;1.45;;;;;;;16.30;69.94;98349.81;4946547;29;20045;-84
2022/07/03 03:09:03;;;;;;;1.40;1.30;;;;;;;16.27;70.54;98353.72;4949972;28;20077;-84
2022/07/03 03:11:43;;;;;;;1.50;1.40;;;;;;;16.22;70.38;98358.91;4951320;28;20090;-84
2022/07/03 03:14:19;;;;;;;1.13;1.13;;;;;;;16.25;71.49;98353.16;4951436;29;20472;-86
2022/07/03 03:16:48;;;;;;;1.27;1.20;;;;;;;16.27;71.09;98364.31;4964332;28;20070;-85
2022/07/03 03:19:22;;;;;;;1.30;1.20;;;;;;;16.25;71.15;98352.31;4953027;28;20077;-87
2022/07/03 03:22:07;;;;;;;1.02;1.02;;;;;;;16.28;71.38;98357.19;4952242;28;20048;-85
2022/07/03 03:24:33;;;;;;;1.50;1.40;;;;;;;16.26;70.80;98354.78;4943161;29;20039;-88
2022/07/03 03:27:01;;;;;;;1.40;1.30;;;;;;;16.17;71.25;98356.13;4934512;28;20173;-85
2022/07/03 03:29:29;;;;;;;1.15;1.05;;;;;;;16.17;70.94;98356.13;4948119;28;20071;-84
2022/07/03 03:31:56;;;;;;;1.08;0.98;;;;;;;16.14;71.53;98343.38;4950209;28;20067;-84
2022/07/03 03:34:32;;;;;;;0.93;0.93;;;;;;;16.17;71.12;98348.19;4946010;28;20462;-83
2022/07/03 03:37:00;;;;;;;1.00;1.00;;;;;;;16.21;71.48;98352.00;4952213;28;20039;-85
2022/07/03 03:39:27;;;;;;;1.20;1.10;;;;;;;16.13;72.13;98344.38;4955247;28;20075;-85
2022/07/03 03:41:54;;;;;;;0.90;0.90;;;;;;;16.16;71.57;98343.94;4935113;29;20051;-83
2022/07/03 03:44:21;;;;;;;1.52;1.42;;;;;;;16.06;71.38;98348.97;4934459;29;20102;-83
2022/07/03 03:46:50;;;;;;;1.25;1.20;;;;;;;16.07;71.33;98347.94;4944080;29;20082;-83
2022/07/03 03:49:17;;;;;;;1.52;1.40;;;;;;;15.97;71.14;98347.72;4941009;29;20137;-83
2022/07/03 03:51:44;;;;;;;1.50;1.40;;;;;;;15.96;72.62;98344.28;4945964;29;20138;-83
2022/07/03 03:54:11;;;;;;;1.30;1.20;;;;;;;15.97;72.79;98347.72;4949910;28;20098;-83
2022/07/03 03:56:37;;;;;;;1.45;1.35;;;;;;;15.91;72.45;98356.56;4939499;28;20047;-83
2022/07/03 03:59:04;;;;;;;1.20;1.10;;;;;;;15.97;72.91;98361.75;4952315;28;20047;-84
2022/07/03 04:01:31;;;;;;;1.40;1.30;;;;;;;15.90;72.52;98352.31;4939416;28;20094;-84
2022/07/03 04:03:59;;;;;;;1.27;1.17;;;;;;;15.95;73.05;98358.53;4951555;29;20071;-83
2022/07/03 04:06:26;;;;;;;0.95;0.95;;;;;;;15.99;73.75;98348.28;4946289;28;20047;-84
2022/07/03 04:08:53;;;;;;;1.15;1.15;;;;;;;16.00;72.79;98356.00;4966212;28;20051;-83
2022/07/03 04:11:19;;;;;;;1.60;1.50;;;;;;;15.99;72.70;98358.88;4943847;28;20107;-83
2022/07/03 04:13:46;;;;;;;1.45;1.27;;;;;;;15.95;72.93;98358.53;4944897;29;20554;-83
2022/07/03 04:16:13;;;;;;;1.20;1.10;;;;;;;16.02;73.17;98369.00;4943994;29;20047;-84
2022/07/03 04:18:39;;;;;;;1.33;1.23;;;;;;;15.97;72.62;98366.25;4945594;28;20047;-83
2022/07/03 04:21:06;;;;;;;1.30;1.20;;;;;;;16.01;73.20;98370.03;4956298;28;20488;-84
2022/07/03 04:23:32;;;;;;;1.10;1.10;;;;;;;16.03;73.42;98375.91;4955005;29;20107;-86
2022/07/03 04:26:05;;;;;;;1.00;1.00;;;;;;;16.08;74.20;98373.41;4949971;29;20062;-85
2022/07/03 04:28:33;;;;;;;1.30;1.20;;;;;;;16.09;72.93;98377.66;4949609;29;20562;-85
2022/07/03 04:31:00;;;;;;;1.30;1.20;;;;;;;16.07;73.11;98374.41;4955442;29;20047;-86
2022/07/03 04:33:27;;;;;;;1.48;1.30;;;;;;;16.02;74.05;98364.53;4950062;29;20069;-86
2022/07/03 04:35:53;;;;;;;2.15;1.95;;;;;;;15.97;72.31;98361.75;4955045;29;20069;-84
2022/07/03 04:38:20;;;;;;;1.80;1.70;;;;;;;15.99;72.98;98369.44;4951272;29;20460;-85
2022/07/03 04:40:47;;;;;;;1.75;1.65;;;;;;;16.03;73.64;98373.25;4939935;29;20055;-88
2022/07/03 04:43:13;;;;;;;1.50;1.40;;;;;;;16.08;73.81;98369.94;4949006;29;20491;-87
2022/07/03 04:45:40;;;;;;;1.50;1.40;;;;;;;16.11;73.48;98361.53;4946493;29;20086;-87
2022/07/03 04:48:07;;;;;;;2.05;1.40;;;;;;;16.16;73.65;98370.41;4949270;29;20423;-88
2022/07/03 04:50:33;;;;;;;1.08;1.08;;;;;;;16.23;73.67;98365.00;4950042;28;20150;-86
2022/07/03 04:53:00;;;;;;;1.33;1.23;;;;;;;16.24;74.42;98364.75;4955142;29;20051;-88
2022/07/03 04:55:27;;;;;;;1.23;1.13;;;;;;;16.28;75.15;98368.56;4951194;29;20048;-87
2022/07/03 04:57:53;;;;;;;1.02;1.02;;;;;;;16.35;74.45;98365.00;4944155;29;20051;-86
2022/07/03 05:00:20;;;;;;;1.00;1.00;;;;;;;16.42;74.26;98378.94;4953942;29;20063;-86
2022/07/03 05:02:47;;;;;;;1.30;1.20;;;;;;;16.52;74.34;98373.88;4951407;28;20098;-87
2022/07/03 05:05:13;;;;;;;1.52;1.42;;;;;;;16.49;73.17;98369.84;4945041;28;20108;-89
2022/07/03 05:07:40;;;;;;;1.73;1.63;;;;;;;16.56;72.86;98367.09;4980266;28;20070;-87
2022/07/03 05:10:07;;;;;;;1.70;1.60;;;;;;;16.69;72.54;98387.22;4956266;29;20074;-87
2022/07/03 05:12:34;;;;;;;1.75;1.60;;;;;;;16.74;73.29;98372.28;4955522;28;20051;-86
2022/07/03 05:15:08;;;;;;;1.60;1.50;;;;;;;16.92;73.17;98386.44;4952658;29;20102;-87
2022/07/03 05:17:34;;;;;;;1.70;1.60;;;;;;;16.99;72.14;98379.94;4953948;28;20086;-86
2022/07/03 05:22:49;;;;;;;1.65;1.50;;;;;;;17.29;71.42;98384.25;4951868;29;20039;-86
2022/07/03 05:25:16;;;;;;;1.85;1.60;;;;;;;17.43;70.92;98382.91;4946672;29;20111;-83
2022/07/03 05:27:44;;;;;;;1.60;1.50;;;;;;;17.61;71.21;98388.03;4949152;28;20046;-81
2022/07/03 05:30:11;;;;;;;1.70;1.60;;;;;;;17.77;71.10;98383.84;4951717;28;20464;-81
2022/07/03 05:32:38;;;;;;;1.88;1.77;;;;;;;17.81;68.42;98385.00;4955289;28;20043;-83
2022/07/03 05:35:06;;;;;;;2.88;2.67;;;;;;;17.97;66.80;98380.72;4947689;29;20125;-84
2022/07/03 05:37:33;;;;;;;2.25;2.05;;;;;;;18.19;67.64;98391.44;4943973;29;20062;-83
2022/07/03 05:39:59;;;;;;;1.70;1.60;;;;;;;18.43;67.76;98392.88;4943185;29;20067;-83
2022/07/03 05:42:26;;;;;;;2.08;1.80;;;;;;;18.64;66.24;98383.34;4941636;28;20119;-86
2022/07/03 05:44:53;;;;;;;2.05;1.95;;;;;;;18.79;65.27;98385.44;4943306;28;20099;-85
2022/07/03 05:47:19;;;;;;;2.45;2.22;;;;;;;18.88;64.69;98383.16;4945041;29;20077;-84
2022/07/03 05:49:47;;;;;;;2.40;2.20;;;;;;;19.04;64.51;98384.97;4950036;29;20055;-86
2022/07/03 05:52:14;;;;;;;1.70;1.60;;;;;;;19.30;65.48;98383.41;4949073;28;20047;-88
2022/07/03 05:54:40;;;;;;;2.33;2.15;;;;;;;19.43;63.38;98391.03;4943117;29;20043;-86
2022/07/03 05:57:07;;;;;;;2.80;2.10;;;;;;;19.51;62.63;98384.44;4945333;29;20070;-85
2022/07/03 05:59:34;;;;;;;1.80;1.70;;;;;;;19.70;63.10;98399.03;4950392;29;20075;-84
2022/07/03 06:02:02;;;;;;;2.50;2.30;;;;;;;19.65;62.33;98396.31;4954992;29;20082;-83
2022/07/03 06:04:29;;;;;;;2.30;2.10;;;;;;;19.84;62.06;98404.75;4963898;28;20066;-83
2022/07/03 06:06:56;;;;;;;2.05;1.95;;;;;;;19.95;61.81;98398.47;4953548;29;20051;-83
2022/07/03 06:09:23;;;;;;;3.22;2.33;;;;;;;19.88;62.53;98400.53;4941797;28;20111;-83
2022/07/03 06:11:50;;;;;;;2.80;2.20;;;;;;;19.98;61.41;98407.81;4935051;29;20044;-83
2022/07/03 06:14:16;;;;;;;1.92;1.83;;;;;;;20.30;62.44;98403.28;4951080;28;20050;-83
2022/07/03 06:16:43;;;;;;;2.35;2.15;;;;;;;20.52;61.02;98415.75;4953619;29;20046;-83
2022/07/03 06:19:10;;;;;;;1.50;1.40;;;;;;;20.81;62.19;98402.84;4942955;29;20046;-82
2022/07/03 06:21:37;;;;;;;2.00;1.80;;;;;;;20.89;60.72;98405.03;4936156;29;20082;-82
2022/07/03 06:24:04;;;;;;;1.60;1.50;;;;;;;21.07;59.50;98401.13;4946768;29;20098;-87
2022/07/03 06:26:31;;;;;;;2.00;1.80;;;;;;;21.27;59.45;98400.41;4944041;29;20102;-84
2022/07/03 06:28:57;;;;;;;2.00;1.90;;;;;;;21.26;59.29;98404.13;4943654;29;20131;-81
2022/07/03 06:31:24;;;;;;;2.35;2.20;;;;;;;21.09;58.00;98394.47;4936344;29;20130;-81
2022/07/03 06:33:51;;;;;;;2.15;2.03;;;;;;;21.36;58.10;98389.00;4950562;29;20392;-82
2022/07/03 06:36:17;;;;;;;1.80;1.70;;;;;;;21.57;59.01;98389.84;4942628;29;20102;-83
2022/07/03 06:38:44;;;;;;;1.83;1.65;;;;;;;21.67;58.90;98393.63;4949609;29;20475;-89
2022/07/03 06:41:11;;;;;;;2.38;2.20;;;;;;;21.71;56.87;98389.31;4941784;28;20075;-81
2022/07/03 06:43:39;;;;;;;1.83;1.73;;;;;;;21.92;58.05;98389.09;4945942;29;20082;-82
2022/07/03 06:46:06;;;;;;;2.05;1.92;;;;;;;22.01;55.77;98389.38;4947913;29;20115;-85
2022/07/03 06:48:32;;;;;;;1.88;1.77;;;;;;;21.99;56.40;98375.47;4953964;28;20754;-80
2022/07/03 06:50:59;;;;;;;1.80;1.70;;;;;;;22.31;57.12;98388.63;4944732;29;20044;-82
2022/07/03 06:53:26;;;;;;;1.83;1.73;;;;;;;22.43;56.04;98385.63;4938690;29;20519;-84
2022/07/03 06:55:53;;;;;;;2.55;2.25;;;;;;;22.53;55.69;98380.28;4936989;29;20130;-83
2022/07/03 06:58:19;;;;;;;2.03;1.92;;;;;;;22.58;56.21;98382.94;4942217;29;20075;-82
2022/07/03 07:00:46;;;;;;;1.80;1.70;;;;;;;22.60;55.71;98372.78;4940095;29;20119;-80
2022/07/03 07:03:13;;;;;;;1.65;1.55;;;;;;;22.78;54.57;98370.59;4940157;29;20111;-82
2022/07/03 07:05:39;;;;;;;2.75;1.80;;;;;;;22.97;54.40;98379.69;4963837;28;20127;-81
2022/07/03 07:08:07;;;;;;;1.90;1.80;;;;;;;23.00;54.67;98378.31;4950939;28;20102;-82
2022/07/03 07:10:34;;;;;;;2.03;1.92;;;;;;;22.89;53.55;98374.88;4945606;29;20594;-82
2022/07/03 07:13:00;;;;;;;1.70;1.60;;;;;;;23.08;52.67;98378.53;4944339;28;20125;-82
2022/07/03 07:15:27;;;;;;;1.77;1.67;;;;;;;23.28;52.86;98382.22;4944799;28;20086;-82
2022/07/03 07:17:54;;;;;;;2.35;1.70;;;;;;;23.41;51.11;98378.94;4936500;29;20079;-81
2022/07/03 07:20:20;;;;;;;1.30;1.20;;;;;;;23.69;52.14;98388.16;4946197;29;20070;-84
2022/07/03 07:22:47;;;;;;;2.15;1.55;;;;;;;23.90;52.81;98383.47;4945227;29;20519;-81
2022/07/03 07:25:13;;;;;;;1.60;1.50;;;;;;;24.00;50.18;98386.09;4937610;29;20043;-83
2022/07/03 07:27:48;;;;;;;1.70;1.60;;;;;;;24.01;51.07;98380.44;4944049;29;20039;-82
2022/07/03 07:30:14;;;;;;;2.03;1.92;;;;;;;23.96;50.65;98382.38;4940578;29;20098;-81
2022/07/03 07:32:41;;;;;;;1.60;1.50;;;;;;;24.22;49.86;98389.09;4942000;29;20071;-82
2022/07/03 07:35:08;;;;;;;1.63;1.52;;;;;;;24.16;49.53;98379.50;4933471;29;20082;-83
2022/07/03 07:37:34;;;;;;;1.90;1.80;;;;;;;24.10;51.60;98391.34;4948370;29;20043;-82
2022/07/03 07:40:01;;;;;;;1.60;1.50;;;;;;;24.17;50.73;98374.94;4948656;29;20086;-82
2022/07/03 07:42:28;;;;;;;1.63;1.52;;;;;;;24.32;49.55;98377.50;4950348;29;20610;-85
2022/07/03 07:44:54;;;;;;;2.35;1.40;;;;;;;24.29;50.35;98380.78;4950978;29;20059;-83
2022/07/03 07:47:21;;;;;;;1.70;1.60;;;;;;;24.40;49.49;98386.84;4950322;29;20477;-82
2022/07/03 07:49:48;;;;;;;1.50;1.40;;;;;;;24.65;50.50;98386.63;4952686;28;20130;-83
2022/07/03 07:52:14;;;;;;;2.42;2.10;;;;;;;24.55;49.81;98387.50;4943356;28;20071;-83
2022/07/03 07:54:41;;;;;;;1.67;1.58;;;;;;;24.79;48.96;98386.72;4946159;28;20043;-86
2022/07/03 07:57:07;;;;;;;1.50;1.40;;;;;;;24.99;49.58;98396.41;4947248;29;20066;-80
2022/07/03 07:59:34;;;;;;;1.25;1.15;;;;;;;25.16;48.53;98380.69;4944233;29;20502;-79
2022/07/03 08:07:39;;;;;;;1.60;1.50;;;;;;;25.44;49.29;98380.88;4938221;29;20047;-80
2022/07/03 08:10:06;;;;;;;1.77;1.50;;;;;;;25.52;47.21;98382.91;4943586;29;20051;-80
2022/07/03 08:12:32;;;;;;;1.60;1.50;;;;;;;25.58;47.29;98376.38;4941255;29;20047;-79
2022/07/03 08:14:59;;;;;;;1.88;1.30;;;;;;;25.79;48.57;98383.09;4941145;28;20043;-82
2022/07/03 08:17:25;;;;;;;1.70;1.60;;;;;;;25.68;46.05;98370.88;4941008;29;20054;-80
2022/07/03 08:19:52;;;;;;;1.70;1.60;;;;;;;25.69;46.44;98361.72;4948281;28;20114;-80
2022/07/03 08:22:19;;;;;;;1.75;1.65;;;;;;;25.85;46.48;98365.81;4940024;29;20059;-79
2022/07/03 08:24:46;;;;;;;1.50;1.40;;;;;;;25.85;45.16;98368.47;4946211;28;20047;-80
2022/07/03 08:27:12;;;;;;;2.00;1.83;;;;;;;25.98;45.66;98364.25;4947114;28;20047;-81
2022/07/03 08:29:39;;;;;;;1.60;1.50;;;;;;;26.06;45.43;98370.84;4941015;29;20179;-80
2022/07/03 08:32:07;;;;;;;1.73;1.63;;;;;;;25.98;45.57;98366.94;4953091;28;20042;-81
2022/07/03 08:34:34;;;;;;;1.52;1.42;;;;;;;25.99;45.22;98373.91;4953907;28;20077;-81
2022/07/03 08:37:01;;;;;;;1.63;1.52;;;;;;;26.01;44.45;98365.53;4945309;28;20443;-80
2022/07/03 08:39:27;;;;;;;1.67;1.58;;;;;;;26.06;44.91;98368.16;4948642;29;20047;-80
2022/07/03 08:41:56;;;;;;;1.45;1.33;;;;;;;26.13;45.48;98368.56;4948812;28;20047;-80
2022/07/03 08:44:24;;;;;;;2.60;1.67;;;;;;;26.19;45.09;98370.06;4948089;29;20103;-80
2022/07/03 08:46:52;;;;;;;1.30;1.20;;;;;;;26.31;44.41;98367.72;4946451;29;20107;-80
2022/07/03 08:49:20;;;;;;;1.20;1.20;;;;;;;26.54;43.35;98374.06;4945831;28;20780;-80
2022/07/03 08:51:48;;;;;;;1.25;1.20;;;;;;;26.74;44.80;98354.03;4943584;28;20051;-82
2022/07/03 08:54:15;;;;;;;1.98;1.40;;;;;;;26.75;44.27;98363.72;4951215;28;20047;-82
2022/07/03 08:56:42;;;;;;;1.73;1.63;;;;;;;26.55;42.24;98361.41;4952696;29;20079;-80
2022/07/03 08:59:09;;;;;;;2.45;1.98;;;;;;;26.42;44.36;98357.59;4939251;28;20051;-81
2022/07/03 09:01:41;;;;;;;1.52;1.42;;;;;;;26.61;44.18;98360.22;4940416;29;20044;-80
2022/07/03 09:04:15;;;;;;;2.10;1.80;;;;;;;26.54;43.71;98362.50;4949279;29;20488;-80
2022/07/03 09:06:43;;;;;;;1.50;1.40;;;;;;;26.81;42.88;98359.84;4953903;28;20114;-81
2022/07/03 09:09:10;;;;;;;1.20;1.10;;;;;;;27.13;42.17;98358.94;4950955;28;20071;-81
2022/07/03 09:11:38;;;;;;;1.23;1.17;;;;;;;27.30;42.95;98352.16;4950100;28;20054;-81
2022/07/03 09:14:06;;;;;;;2.75;1.10;;;;;;;27.53;42.66;98351.09;4942772;29;20103;-81
2022/07/03 09:16:37;;;;;;;1.65;1.55;;;;;;;27.30;41.56;98350.25;4939433;28;20051;-80
2022/07/03 09:19:04;;;;;;;1.13;1.13;;;;;;;27.32;41.66;98350.72;4945843;29;20044;-80
2022/07/03 09:21:42;;;;;;;1.17;1.10;;;;;;;27.44;40.05;98344.81;4945988;29;20470;-81
2022/07/03 09:24:10;;;;;;;1.38;1.27;;;;;;;27.51;42.35;98345.19;4940547;28;20102;-80
2022/07/03 09:26:51;;;;;;;1.40;1.30;;;;;;;27.39;37.61;98348.41;4945097;29;20365;-81
2022/07/03 09:29:19;;;;;;;1.20;1.10;;;;;;;27.40;38.10;98350.00;4945441;29;20035;-81
2022/07/03 09:31:55;;;;;;;1.38;0.98;;;;;;;27.46;39.09;98346.09;4949651;28;20122;-80
2022/07/03 09:34:23;;;;;;;0.90;0.90;;;;;;;27.59;39.94;98351.75;4947890;29;20086;-82
2022/07/03 09:36:51;;;;;;;1.95;1.00;;;;;;;27.85;39.12;98347.41;4943545;29;20158;-82
2022/07/03 09:39:30;;;;;;;1.10;1.10;;;;;;;27.88;37.94;98341.38;4950956;28;20460;-82
2022/07/03 09:42:00;;;;;;;1.05;1.00;;;;;;;28.05;39.05;98340.69;4947343;28;20069;-80
2022/07/03 09:44:33;;;;;;;1.08;0.95;;;;;;;28.23;38.01;98334.31;4954776;29;21775;-83
2022/07/03 09:47:12;;;;;;;1.15;1.15;;;;;;;28.06;38.17;98333.41;4944206;28;20047;-81
2022/07/03 09:50:04;;;;;;;1.45;1.35;;;;;;;27.84;37.87;98337.72;4941919;29;20094;-82
2022/07/03 09:52:43;;;;;;;1.10;1.00;;;;;;;27.83;38.17;98333.44;4941967;29;20043;-82
2022/07/03 09:55:09;;;;;;;1.55;1.10;;;;;;;27.80;38.84;98333.25;4944702;29;20048;-81
2022/07/03 09:57:39;;;;;;;1.35;0.90;;;;;;;28.00;37.49;98327.34;4944176;29;20526;-82
2022/07/03 10:00:17;;;;;;;1.60;0.90;;;;;;;28.00;35.91;98325.44;4942082;29;20166;-81
2022/07/03 10:03:09;;;;;;;0.80;0.80;;;;;;;28.24;37.58;98329.69;4947332;28;20043;-82
2022/07/03 10:05:42;;;;;;;1.40;1.00;;;;;;;28.25;38.59;98331.31;4939703;29;20040;-80
2022/07/03 10:08:16;;;;;;;0.98;0.98;;;;;;;28.56;36.99;98317.84;4958758;28;20479;-81
2022/07/03 10:10:48;;;;;;;1.88;1.10;;;;;;;28.67;39.45;98315.63;4947495;29;20101;-82
2022/07/03 10:13:16;;;;;;;1.27;1.02;;;;;;;28.62;37.57;98329.28;4946603;29;20098;-81
2022/07/03 10:15:43;;;;;;;1.35;1.17;;;;;;;28.60;37.18;98331.47;4944750;29;20043;-86
2022/07/03 10:18:13;;;;;;;1.50;0.90;;;;;;;28.73;39.70;98326.00;4952995;29;20428;-81
2022/07/03 10:20:50;;;;;;;0.80;0.80;;;;;;;28.84;38.81;98318.38;4943573;29;20459;-82
2022/07/03 10:23:21;;;;;;;0.85;0.85;;;;;;;28.90;37.77;98319.03;4936793;28;20134;-81
2022/07/03 10:25:48;;;;;;;1.17;1.02;;;;;;;28.86;36.53;98318.09;4943083;28;20043;-83
2022/07/03 10:28:18;;;;;;;1.10;1.00;;;;;;;28.89;35.42;98323.63;4942851;29;20043;-82
2022/07/03 10:30:47;;;;;;;1.55;1.20;;;;;;;28.75;35.34;98323.78;4944155;28;20042;-81
2022/07/03 10:33:15;;;;;;;0.90;0.90;;;;;;;28.98;35.63;98311.00;4947317;28;20047;-81
2022/07/03 10:35:48;;;;;;;2.53;1.10;;;;;;;28.95;36.88;98311.63;4943567;29;20090;-82
2022/07/03 10:38:45;;;;;;;1.15;1.00;;;;;;;28.89;34.91;98312.84;4952785;29;20039;-81
2022/07/03 10:46:58;;;;;;;0.80;0.80;;;;;;;29.32;34.52;98304.03;4930557;29;20103;-82
2022/07/03 10:49:31;;;;;;;1.00;1.00;;;;;;;29.36;33.00;98296.91;4926183;29;20071;-82
2022/07/03 10:52:01;;;;;;;1.00;0.90;;;;;;;29.27;31.08;98306.91;4929458;29;20083;-81
2022/07/03 10:54:33;;;;;;;2.97;1.00;;;;;;;29.25;32.93;98299.09;4928932;29;20099;-82
2022/07/03 10:57:00;;;;;;;1.45;0.90;;;;;;;29.41;33.42;98302.13;4924373;29;20055;-82
2022/07/03 10:59:36;;;;;;;0.60;0.60;;;;;;;29.60;31.91;98291.03;4928923;29;20071;-83
2022/07/03 11:02:28;;;;;;;0.80;0.80;;;;;;;29.47;32.32;98291.97;4929744;29;20043;-81
2022/07/03 11:07:32;;;;;;;1.23;0.83;;;;;;;29.25;31.51;98292.91;4930953;29;20043;-82
2022/07/03 11:10:12;;;;;;;0.95;0.95;;;;;;;29.38;33.03;98291.16;4939741;29;20335;-81
2022/07/03 11:12:57;;;;;;;0.90;0.90;;;;;;;29.54;30.50;98282.28;4926064;29;20544;-82
2022/07/03 11:15:54;;;;;;;0.60;0.60;;;;;;;29.75;30.95;98284.34;4928127;29;20047;-82
2022/07/03 11:18:23;;;;;;;1.27;0.85;;;;;;;29.77;29.63;98276.72;4918842;29;20095;-82
2022/07/03 11:20:50;;;;;;;0.70;0.70;;;;;;;29.80;29.12;98270.66;4926961;29;20556;-81
2022/07/03 11:23:31;;;;;;;0.90;0.90;;;;;;;29.46;31.10;98266.06;4931021;29;20067;-83
2022/07/03 11:26:00;;;;;;;0.85;0.85;;;;;;;29.53;28.89;98267.19;4923953;29;20381;-81
2022/07/03 11:28:30;;;;;;;0.73;0.73;;;;;;;29.71;30.10;98262.56;4918564;29;20044;-81
2022/07/03 11:31:11;;;;;;;0.80;0.80;;;;;;;29.93;30.86;98269.69;4918598;29;20075;-82
2022/07/03 11:33:44;;;;;;;0.80;0.80;;;;;;;30.20;30.13;98265.00;4929177;29;20086;-85
2022/07/03 11:36:17;;;;;;;0.43;0.43;;;;;;;30.43;30.47;98260.94;4923979;29;20048;-81
2022/07/03 11:38:50;;;;;;;0.50;0.50;;;;;;;30.64;30.49;98255.53;4921274;29;20036;-82
2022/07/03 11:41:17;;;;;;;0.60;0.60;;;;;;;30.75;29.09;98256.00;4922902;29;20101;-82
2022/07/03 11:43:56;;;;;;;0.60;0.60;;;;;;;30.68;29.51;98250.28;4926849;29;20076;-84
2022/07/03 11:46:27;;;;;;;0.90;0.90;;;;;;;30.58;28.59;98254.94;4947348;29;20748;-83
2022/07/03 11:49:10;;;;;;;0.80;0.80;;;;;;;30.32;29.43;98260.50;4943369;29;20070;-81
2022/07/03 11:51:58;;;;;;;0.60;0.60;;;;;;;30.30;28.37;98249.22;4951077;28;20039;-85
2022/07/03 11:54:29;;;;;;;1.30;0.60;;;;;;;30.46;29.55;98249.44;4949460;29;20043;-82
2022/07/03 11:56:56;;;;;;;0.60;0.60;;;;;;;30.65;29.21;98230.88;4952114;29;21779;-82
2022/07/03 11:59:23;;;;;;;2.05;0.77;;;;;;;30.61;28.65;98243.47;4946755;28;20091;-83
2022/07/03 12:01:50;;;;;;;0.63;0.63;;;;;;;30.53;27.92;98236.22;4941930;29;20048;-85
2022/07/03 12:04:22;;;;;;;0.70;0.70;;;;;;;30.41;28.99;98246.13;4943575;28;20126;-81
2022/07/03 12:07:00;;;;;;;0.50;0.50;;;;;;;30.57;28.99;98242.53;4945261;29;20052;-81
2022/07/03 12:09:35;;;;;;;0.60;0.60;;;;;;;30.49;27.46;98237.97;4942805;29;20082;-81
2022/07/03 12:12:04;;;;;;;0.80;0.80;;;;;;;30.16;28.16;98239.72;4941312;29;20365;-82